Wahpeton, ND (58076)

6:13 PM CST on February 11, 2016 (GMT -0600)
North Wahpeton | | Change Station
CLOSE
Current Station
Personal Weather Station
Location: Wahpeton, ND
Elevation: 961 ft
Nearby Weather Stations

Elev 961 ft 46.27 °N, 96.61 °W | Updated 3 minutes ago

Overcast
Overcast
14.2 °F
Feels Like 14 °F
N
0.0
Wind Variable Wind from NW

Today
High -- | Low -- °F
--% Chance of Precip.
Yesterday
High -- | Low -- °F
Precip. -- in
Pressure 30.24 in
Visibility 7.0 miles
Clouds Overcast 1700 ft
Windchill 14 °F
Dew Point 10 °F
Humidity 81%
Rainfall 0.00 in
Snow Depth Not available.
7:36 AM 5:45 PM
Waxing Crescent, 15% visible
METAR KBWP 112355Z AUTO 32004KT 7SM OVC017 M10/M13 A3024 RMK AO1
Pressure 30.24 in
Visibility 7.0 miles
Clouds Overcast 1700 ft
Windchill 14 °F
Dew Point 10 °F
Humidity 81%
Rainfall 0.00 in
Snow Depth Not available.
7:36 AM 5:45 PM
Waxing Crescent, 15% visible
METAR KBWP 112355Z AUTO 32004KT 7SM OVC017 M10/M13 A3024 RMK AO1

10-Day Weather Forecast

Almanac

Astronomy

Feb. 11, 2016 Rise Set
Actual Time
Civil Twilight
Nautical Twilight
Astronomical Twilight
Moon
Length of Visible Light
Length of Day
Tomorrow will be .
, % of the Moon is Illuminated

Today's Extremes

State Highs State Lows

Community

WunderPhotos

Upload Photos

1,892,186 photos uploaded!

WunderBlog® & News

Nearby

Air Quality

  Air Quality AQ Index Pollutant
Not available.

Snow Depth

Station Depth Elevation

Earthquake Activity

City Distance Mag. Time & Date
Minimum magnitude displayed is 2.5.

Coastal Water Temperatures

Place Temperature

Stations

Nearby Weather Stations

Station Location Temp. Windchill Dew Point Humidity Wind Precip. Elev Updated Type
                   

Watches & Warnings

There are currently no watches in effect.